KCMY/CMY METAR and TAF weather

Enter ICAO airport designator
Station Type Date Time Source
KCMY METAR 2020/08/11 19:35 UTC NOAA

KCMY 111935Z AUTO 27005KT 10SM CLR 27/10 A3003 RMK AO2 T02700098


Station Type Date Time Source
KCMY Decoded METAR 2020/08/11 19:35 UTC NOAA

Sparta, Sparta / Fort McCoy Airport, WI, United States (KCMY) 43-57-30N 090-44-16W
Aug 11, 2020 - 03:35 PM EDT / 2020.08.11 1935 UTC
Wind: from the W (270 degrees) at 6 MPH (5 KT):0
Visibility: 10 mile(s):0
Sky conditions: clear
Temperature: 80.6 F (27.0 C)
Dew Point: 49.6 F (9.8 C)
Relative Humidity: 33%
Pressure (altimeter): 30.03 in. Hg (1016 hPa)
ob: KCMY 111935Z AUTO 27005KT 10SM CLR 27/10 A3003 RMK AO2 T02700098
cycle: 19

Station Type Date Time Source
KCMY TAF UTC NOAA

Error!

Example: see airport list